GW0692 Weather Reports


Display with metric or nautical units.
time (UTC)temp
F
wind
direction
speed
MPH
gust
MPH
rain 1hr
in
rain 24hr
in
rain mn
in
humidity
%
barometer
mb
20221130202249 47 258 1.0 2.0 0.00 0.00 0.00 33 1020.9
20221130201749 47 58 2.0 3.0 0.00 0.00 0.00 34 1021.0
20221130201246 46 322 2.0 2.0 0.00 0.00 0.00 33 1021.0
20221130200747 49 215 5.0 7.0 0.00 0.00 0.00 26 1020.9
20221130200245 48 228 2.0 3.0 0.00 0.00 0.00 32 1020.9
20221130195745 48 121 6.0 9.0 0.00 0.00 0.00 33 1021.2
20221130195244 47 227 0.0 2.0 0.00 0.00 0.00 33 1021.4
20221130194742 46 4 2.0 3.0 0.00 0.00 0.00 33 1021.2
20221130194242 47 82 3.0 5.0 0.00 0.00 0.00 34 1021.2
20221130193742 48 74 2.0 3.0 0.00 0.00 0.00 33 1021.7
20221130193241 47 144 3.0 5.0 0.00 0.00 0.00 33 1021.7
20221130192741 46 113 6.0 7.0 0.00 0.00 0.00 34 1021.4
20221130192241 45 60 7.0 9.0 0.00 0.00 0.00 35 1021.3
20221130191741 44 133 2.0 3.0 0.00 0.00 0.00 36 1021.7
20221130191240 44 2 4.0 5.0 0.00 0.00 0.00 35 1021.7
20221130190739 45 160 4.0 5.0 0.00 0.00 0.00 35 1021.9
20221130190237 46 63 5.0 5.0 0.00 0.00 0.00 35 1022.2
20221130185735 45 81 5.0 7.0 0.00 0.00 0.00 36 1022.0
20221130185233 45 106 4.0 7.0 0.00 0.00 0.00 35 1022.0
20221130184732 46 222 4.0 5.0 0.00 0.00 0.00 34 1022.4
20221130184232 46 221 3.0 5.0 0.00 0.00 0.00 34 1022.3
20221130183731 45 133 5.0 5.0 0.00 0.00 0.00 34 1022.4
20221130183230 46 203 3.0 3.0 0.00 0.00 0.00 34 1022.7
20221130182730 47 199 3.0 3.0 0.00 0.00 0.00 32 1022.7
20221130182230 46 54 3.0 5.0 0.00 0.00 0.00 33 1022.8
20221130181728 45 182 6.0 9.0 0.00 0.00 0.00 33 1022.8
20221130181226 44 91 8.0 12.0 0.00 0.00 0.00 34 1022.8
20221130180726 45 63 7.0 9.0 0.00 0.00 0.00 34 1022.8
20221130180226 45 114 3.0 3.0 0.00 0.00 0.00 33 1023.3
20221130175724 45 71 3.0 3.0 0.00 0.00 0.00 35 1022.9
20221130175223 45 167 4.0 5.0 0.00 0.00 0.00 34 1023.3
20221130174722 43 144 3.0 5.0 0.00 0.00 0.00 36 1023.3
20221130174222 43 130 4.0 7.0 0.00 0.00 0.00 35 1023.5
20221130173721 44 103 5.0 5.0 0.00 0.00 0.00 34 1023.5
20221130173219 44 99 5.0 7.0 0.00 0.00 0.00 34 1023.4
20221130172717 46 140 3.0 3.0 0.00 0.00 0.00 34 1023.4
20221130172213 45 252 1.0 2.0 0.00 0.00 0.00 35 1023.5
20221130171710 45 235 1.0 2.0 0.00 0.00 0.00 34 1023.5
20221130171208 45 138 3.0 3.0 0.00 0.00 0.00 35 1023.3
20221130170708 45 265 3.0 3.0 0.00 0.00 0.00 36 1023.3
20221130170206 44 310 3.0 3.0 0.00 0.00 0.00 37 1023.5
20221130165704 43 254 3.0 3.0 0.00 0.00 0.00 37 1023.5
20221130165202 43 255 3.0 5.0 0.00 0.00 0.00 38 1023.6
20221130164702 44 254 3.0 3.0 0.00 0.00 0.00 37 1023.6
20221130164202 44 222 1.0 3.0 0.00 0.00 0.00 36 1023.6
20221130163700 43 226 2.0 2.0 0.00 0.00 0.00 36 1023.8
20221130163200 42 246 2.0 3.0 0.00 0.00 0.00 37 1023.5
20221130162658 42 226 3.0 3.0 0.00 0.00 0.00 38 1023.4
20221130162156 41 249 2.0 2.0 0.00 0.00 0.00 39 1023.5
20221130161656 41 291 5.0 7.0 0.00 0.00 0.00 40 1023.6
20221130161156 41 249 2.0 3.0 0.00 0.00 0.00 40 1023.4
20221130160655 40 239 3.0 3.0 0.00 0.00 0.00 40 1023.4
20221130160153 40 275 2.0 3.0 0.00 0.00 0.00 39 1023.3
20221130155651 39 247 2.0 3.0 0.00 0.00 0.00 37 1023.4
20221130155152 39 254 3.0 3.0 0.00 0.00 0.00 36 1023.4
20221130154650 39 286 3.0 3.0 0.00 0.00 0.00 35 1023.8
20221130154148 39 223 0.0 0.0 0.00 0.00 0.00 36 1023.6
20221130153647 38 212 1.0 3.0 0.00 0.00 0.00 36 1023.6
20221130153146 37 226 2.0 3.0 0.00 0.00 0.00 37 1023.6
20221130152646 37 219 4.0 5.0 0.00 0.00 0.00 37 1023.4
20221130152145 36 217 3.0 3.0 0.00 0.00 0.00 37 1023.6
20221130151645 35 222 5.0 5.0 0.00 0.00 0.00 38 1023.6
20221130151143 35 220 3.0 3.0 0.00 0.00 0.00 38 1023.9
20221130150641 35 178 2.0 2.0 0.00 0.00 0.00 38 1023.6
20221130150139 36 218 4.0 7.0 0.00 0.00 0.00 37 1023.3
20221130145638 36 177 2.0 2.0 0.00 0.00 0.00 37 1023.2
20221130145137 35 180 1.0 2.0 0.00 0.00 0.00 38 1023.4
20221130144637 34 198 0.0 2.0 0.00 0.00 0.00 39 1023.4
20221130144135 33 220 2.0 2.0 0.00 0.00 0.00 40 1023.5
20221130143635 33 198 2.0 3.0 0.00 0.00 0.00 40 1023.2
20221130143133 32 196 1.0 2.0 0.00 0.00 0.00 41 1023.0
20221130142632 31 219 1.0 2.0 0.00 0.00 0.00 42 1023.0
20221130142130 30 220 0.0 0.0 0.00 0.00 0.00 43 1023.0
20221130141629 29 229 1.0 2.0 0.00 0.00 0.00 45 1023.3
20221130141125 28 263 0.0 0.0 0.00 0.00 0.00 47 1023.2
20221130140624 27 263 0.0 0.0 0.00 0.00 0.00 47 1023.2
20221130140124 27 277 0.0 0.0 0.00 0.00 0.00 49 1023.0
20221130135623 26 285 0.0 0.0 0.00 0.00 0.00 49 1022.8
20221130135122 25 285 0.0 0.0 0.00 0.00 0.00 51 1022.5
20221130134621 25 286 0.0 0.0 0.00 0.00 0.00 52 1022.7
20221130134120 25 288 0.0 0.0 0.00 0.00 0.00 51 1022.4
20221130133620 26 289 0.0 0.0 0.00 0.00 0.00 51 1022.4
20221130133118 26 290 0.0 0.0 0.00 0.00 0.00 50 1022.4
20221130132617 26 293 0.0 0.0 0.00 0.00 0.00 50 1022.4
20221130132116 26 25 0.0 2.0 0.00 0.00 0.00 48 1022.3
20221130131616 26 251 0.0 0.0 0.00 0.00 0.00 48 1022.7
20221130131115 26 16 1.0 2.0 0.00 0.00 0.00 48 1022.4
20221130130613 27 37 3.0 3.0 0.00 0.00 0.00 47 1022.4
20221130130113 26 267 2.0 2.0 0.00 0.00 0.00 48 1022.4
20221130125611 28 342 2.0 3.0 0.00 0.00 0.00 46 1022.3
20221130125110 29 246 2.0 2.0 0.00 0.00 0.00 45 1022.3
20221130124608 29 267 4.0 5.0 0.00 0.00 0.00 45 1022.3
20221130124106 29 253 4.0 5.0 0.00 0.00 0.00 46 1022.2
20221130123606 28 252 3.0 3.0 0.00 0.00 0.00 46 1021.9
20221130123103 27 233 2.0 3.0 0.00 0.00 0.00 48 1021.9
20221130122602 27 229 0.0 0.0 0.00 0.00 0.00 48 1021.9
20221130122100 27 256 1.0 2.0 0.00 0.00 0.00 48 1022.3
20221130121600 27 296 3.0 5.0 0.00 0.00 0.00 48 1021.7
20221130121058 28 261 0.0 0.0 0.00 0.00 0.00 46 1021.8
20221130120557 29 238 3.0 3.0 0.00 0.00 0.00 45 1021.5
20221130120057 28 228 5.0 7.0 0.00 0.00 0.00 45 1021.8
20221130115555 28 247 6.0 7.0 0.00 0.00 0.00 45 1021.7
20221130115055 28 246 7.0 9.0 0.00 0.00 0.00 45 1021.7
20221130114555 28 252 5.0 5.0 0.00 0.00 0.00 45 1021.4
20221130114053 28 236 6.0 9.0 0.00 0.00 0.00 45 1021.5
20221130113553 29 243 5.0 7.0 0.00 0.00 0.00 45 1021.5
20221130113052 29 247 5.0 7.0 0.00 0.00 0.00 44 1021.0
20221130112552 29 271 4.0 7.0 0.00 0.00 0.00 44 1021.3
20221130112051 29 256 7.0 10.0 0.00 0.00 0.00 44 1021.3
20221130111549 30 255 7.0 9.0 0.00 0.00 0.00 43 1021.7
20221130111047 29 245 5.0 7.0 0.00 0.00 0.00 44 1021.4
20221130110547 29 253 3.0 3.0 0.00 0.00 0.00 43 1021.5
20221130110045 29 253 5.0 7.0 0.00 0.00 0.00 43 1021.2
20221130105543 29 248 3.0 3.0 0.00 0.00 0.00 43 1021.3
20221130105043 29 255 3.0 3.0 0.00 0.00 0.00 42 1021.4
20221130104543 29 256 3.0 3.0 0.00 0.00 0.00 44 1021.3
20221130104042 28 253 4.0 5.0 0.00 0.00 0.00 44 1021.3
20221130103542 29 242 4.0 5.0 0.00 0.00 0.00 44 1021.3
20221130103041 29 248 4.0 5.0 0.00 0.00 0.00 44 1021.3
20221130102539 29 251 3.0 3.0 0.00 0.00 0.00 44 1020.8
20221130102037 29 252 3.0 3.0 0.00 0.00 0.00 44 1021.3
20221130101536 29 256 3.0 3.0 0.00 0.00 0.00 43 1020.9
20221130101036 29 260 3.0 3.0 0.00 0.00 0.00 43 1021.5
20221130100535 29 255 2.0 2.0 0.00 0.00 0.00 44 1021.3
20221130100033 28 261 3.0 3.0 0.00 0.00 0.00 44 1021.3
20221130095532 28 259 3.0 3.0 0.00 0.00 0.00 45 1021.2
20221130095032 28 256 3.0 3.0 0.00 0.00 0.00 46 1021.2
20221130094530 28 261 2.0 3.0 0.00 0.00 0.00 46 1021.4
20221130094028 28 262 2.0 3.0 0.00 0.00 0.00 46 1021.2
20221130093528 28 267 2.0 3.0 0.00 0.00 0.00 46 1021.2
20221130093027 27 259 2.0 3.0 0.00 0.00 0.00 46 1021.0
20221130092527 27 254 3.0 3.0 0.00 0.00 0.00 46 1021.2
20221130092027 27 253 2.0 3.0 0.00 0.00 0.00 46 1020.9
20221130091527 27 256 2.0 3.0 0.00 0.00 0.00 46 1020.8
20221130091026 27 261 2.0 3.0 0.00 0.00 0.00 46 1020.8
20221130090525 28 253 2.0 2.0 0.00 0.00 0.00 46 1021.0
20221130090025 27 261 2.0 2.0 0.00 0.00 0.00 46 1020.8
20221130085525 27 257 2.0 2.0 0.00 0.00 0.00 45 1020.9
20221130085024 27 264 1.0 2.0 0.00 0.00 0.00 46 1020.8
20221130084523 27 267 2.0 2.0 0.00 0.00 0.00 46 1020.7
20221130084023 26 269 0.0 0.0 0.00 0.00 0.00 47 1020.5
20221130083522 27 263 0.0 2.0 0.00 0.00 0.00 46 1020.8
20221130083020 28 264 1.0 2.0 0.00 0.00 0.00 45 1020.9
20221130082519 27 271 0.0 0.0 0.00 0.00 0.00 46 1020.8
20221130082017 27 277 0.0 0.0 0.00 0.00 0.00 47 1020.5
20221130081518 26 264 1.0 2.0 0.00 0.00 0.00 47 1020.5
20221130081016 25 261 2.0 3.0 0.00 0.00 0.00 49 1020.4
20221130080515 25 271 0.0 2.0 0.00 0.00 0.00 49 1020.4
20221130080015 25 269 0.0 0.0 0.00 0.00 0.00 49 1020.2
20221130075513 25 267 2.0 3.0 0.00 0.00 0.00 49 1020.2
20221130075013 25 270 1.0 2.0 0.00 0.00 0.00 50 1020.2
20221130074512 25 271 0.0 0.0 0.00 0.00 0.00 50 1020.2
20221130074010 25 280 2.0 2.0 0.00 0.00 0.00 50 1020.2
20221130073510 25 263 0.0 0.0 0.00 0.00 0.00 50 1020.3
20221130073008 25 253 0.0 2.0 0.00 0.00 0.00 50 1020.0
20221130072507 25 308 2.0 2.0 0.00 0.00 0.00 50 1019.9
20221130072006 25 69 1.0 2.0 0.00 0.00 0.00 51 1020.0
20221130071505 25 298 3.0 3.0 0.00 0.00 0.00 51 1019.8
20221130071003 25 39 2.0 2.0 0.00 0.00 0.00 50 1019.9
20221130070503 25 338 3.0 3.0 0.00 0.00 0.00 51 1020.2
20221130070003 25 288 0.0 2.0 0.00 0.00 0.00 52 1019.8
20221130065502 25 250 2.0 3.0 0.00 0.00 0.00 52 1020.0
20221130065001 25 286 3.0 3.0 0.00 0.00 0.00 51 1019.8
20221130064459 25 254 0.0 2.0 0.00 0.00 0.00 52 1020.3
20221130063959 25 261 1.0 2.0 0.00 0.00 0.00 51 1019.9
20221130063459 25 268 0.0 0.0 0.00 0.00 0.00 53 1020.2
20221130062959 25 267 0.0 0.0 0.00 0.00 0.00 53 1020.2
20221130062458 26 325 0.0 2.0 0.00 0.00 0.00 52 1020.2
20221130061956 26 269 1.0 2.0 0.00 0.00 0.00 52 1020.2
20221130061455 26 241 0.0 2.0 0.00 0.00 0.00 52 1020.0
20221130060954 26 318 3.0 3.0 0.00 0.00 0.00 52 1019.9
20221130060452 26 14 1.0 2.0 0.00 0.00 0.00 52 1019.8
20221130055950 27 273 0.0 0.0 0.00 0.00 0.00 52 1019.9
20221130055450 27 51 3.0 3.0 0.00 0.00 0.00 52 1020.0
20221130054948 27 26 5.0 7.0 0.00 0.00 0.00 51 1019.9
20221130054448 28 48 4.0 5.0 0.00 0.00 0.00 51 1020.2
20221130053946 27 254 2.0 3.0 0.00 0.00 0.00 52 1020.0
20221130053444 28 341 3.0 5.0 0.00 0.00 0.00 51 1019.9
20221130052943 27 324 2.0 3.0 0.00 0.00 0.00 52 1019.9
20221130052442 28 273 3.0 3.0 0.00 0.00 0.00 52 1019.9
20221130051941 28 204 1.0 2.0 0.00 0.00 0.00 51 1019.9
20221130051438 28 281 0.0 2.0 0.00 0.00 0.00 51 1019.7
20221130050936 28 248 3.0 5.0 0.00 0.00 0.00 51 1019.5
20221130050436 28 57 3.0 5.0 0.00 0.00 0.00 52 1019.4
20221130045934 28 25 1.0 2.0 0.00 0.00 0.00 51 1019.4
20221130045434 28 290 1.0 2.0 0.00 0.00 0.00 50 1019.2
20221130044933 28 82 1.0 3.0 0.00 0.00 0.00 52 1019.0
20221130044433 28 331 0.0 2.0 0.00 0.00 0.00 51 1019.3
20221130043931 29 223 1.0 2.0 0.00 0.00 0.00 49 1019.2
20221130043429 31 211 0.0 0.0 0.00 0.00 0.00 47 1019.0
20221130042929 31 217 1.0 2.0 0.00 0.00 0.00 47 1018.9
20221130042427 31 227 5.0 9.0 0.00 0.00 0.00 47 1018.8
20221130041925 31 241 3.0 3.0 0.00 0.00 0.00 47 1018.9
20221130041424 30 240 2.0 3.0 0.00 0.00 0.00 49 1018.8
20221130040924 28 262 5.0 7.0 0.00 0.00 0.00 52 1018.8
20221130040423 28 270 2.0 3.0 0.00 0.00 0.00 52 1018.7
20221130035921 28 273 0.0 2.0 0.00 0.00 0.00 52 1018.7
20221130035421 29 247 2.0 2.0 0.00 0.00 0.00 51 1018.5
20221130034921 30 277 0.0 0.0 0.00 0.00 0.00 49 1018.7
20221130034421 31 202 1.0 2.0 0.00 0.00 0.00 48 1018.8
20221130033920 33 55 5.0 7.0 0.00 0.00 0.00 45 1018.7
20221130033419 34 46 2.0 3.0 0.00 0.00 0.00 42 1018.2
20221130032918 35 235 2.0 2.0 0.00 0.00 0.00 40 1018.4
20221130032418 35 257 7.0 9.0 0.00 0.00 0.00 38 1018.0
20221130031917 35 273 5.0 5.0 0.00 0.00 0.00 40 1018.3
20221130031416 35 264 4.0 5.0 0.00 0.00 0.00 40 1017.9
20221130030914 35 255 6.0 9.0 0.00 0.00 0.00 40 1017.9
20221130030414 35 277 6.0 9.0 0.00 0.00 0.00 41 1018.0
20221130025913 34 231 6.0 9.0 0.00 0.00 0.00 43 1017.9
20221130025413 32 273 5.0 9.0 0.00 0.00 0.00 44 1017.9
20221130024911 31 261 3.0 3.0 0.00 0.00 0.00 47 1018.2
20221130024411 31 241 3.0 3.0 0.00 0.00 0.00 49 1017.8
20221130023911 29 256 5.0 7.0 0.00 0.00 0.00 52 1017.9
20221130023409 30 258 3.0 3.0 0.00 0.00 0.00 52 1017.7
20221130022908 30 251 7.0 9.0 0.00 0.00 0.00 52 1017.7
20221130022407 32 303 8.0 10.0 0.00 0.00 0.00 49 1017.4
20221130021907 29 254 3.0 3.0 0.00 0.00 0.00 54 1017.4
20221130021406 29 253 4.0 7.0 0.00 0.00 0.00 54 1017.3
20221130020905 30 281 3.0 3.0 0.00 0.00 0.00 53 1017.2
20221130020404 30 268 3.0 3.0 0.00 0.00 0.00 53 1017.0
20221130015902 31 261 4.0 5.0 0.00 0.00 0.00 51 1017.3
20221130015401 32 264 0.0 2.0 0.00 0.00 0.00 50 1017.0
20221130014859 31 266 0.0 0.0 0.00 0.00 0.00 51 1017.0
20221130014359 32 260 1.0 2.0 0.00 0.00 0.00 50 1016.9
20221130013859 30 271 0.0 0.0 0.00 0.00 0.00 53 1016.7
20221130013359 31 278 2.0 3.0 0.00 0.00 0.00 52 1016.8
20221130012858 30 250 0.0 0.0 0.00 0.00 0.00 52 1016.8